createdAt,value
2017-09-22T00:03:13.183Z,12.77
2017-09-22T00:03:59.260Z,12.84
2017-09-22T00:04:39.539Z,12.7
2017-09-22T00:05:20.502Z,12.73
2017-09-22T00:06:06.156Z,12.7
2017-09-22T00:06:44.731Z,12.79
2017-09-22T00:07:25.299Z,12.77
2017-09-22T00:08:05.778Z,12.58
2017-09-22T00:08:48.196Z,12.67
2017-09-22T00:09:28.268Z,12.66
2017-09-22T00:10:08.608Z,12.56
2017-09-22T00:10:49.134Z,12.7
2017-09-22T00:11:31.693Z,12.63
2017-09-22T00:12:12.393Z,12.58
2017-09-22T00:12:55.458Z,12.62
2017-09-22T00:13:36.952Z,12.58
2017-09-22T00:14:18.142Z,12.56
2017-09-22T00:15:01.943Z,12.56
2017-09-22T00:15:44.405Z,12.51
2017-09-22T00:16:24.726Z,12.44
2017-09-22T00:17:05.299Z,12.51
2017-09-22T00:17:47.587Z,12.46
2017-09-22T00:18:29.473Z,12.52
2017-09-22T00:19:12.999Z,12.43
2017-09-22T00:19:55.704Z,12.46
2017-09-22T00:20:36.633Z,12.51
2017-09-22T00:21:18.543Z,12.41
2017-09-22T00:22:02.148Z,12.51
2017-09-22T00:22:46.208Z,12.55
2017-09-22T00:23:31.620Z,12.49
2017-09-22T00:24:12.687Z,12.46
2017-09-22T00:24:53.037Z,12.48
2017-09-22T00:25:34.111Z,12.51
2017-09-22T00:26:15.873Z,12.43
2017-09-22T00:26:56.126Z,12.48
2017-09-22T00:27:38.888Z,12.48
2017-09-22T00:28:19.704Z,12.38
2017-09-22T00:29:00.274Z,12.4
2017-09-22T00:29:41.305Z,12.37
2017-09-22T00:37:44.062Z,12.44
2017-09-22T00:40:22.128Z,12.4
2017-09-22T00:47:53.153Z,12.4
2017-09-22T00:48:34.602Z,12.4
2017-09-22T00:49:15.015Z,12.4
2017-09-22T00:49:55.388Z,12.41
2017-09-22T00:50:36.589Z,12.44
2017-09-22T00:51:17.098Z,12.4
2017-09-22T00:51:57.482Z,12.43
2017-09-22T00:52:37.909Z,12.48
2017-09-22T00:53:21.223Z,12.48
2017-09-22T00:54:01.595Z,12.43
2017-09-22T00:54:42.135Z,12.48
2017-09-22T00:55:22.631Z,12.4
2017-09-22T00:56:03.046Z,12.49
2017-09-22T00:56:43.553Z,12.46
2017-09-22T00:57:23.914Z,12.4
2017-09-22T00:58:04.379Z,12.43
2017-09-22T00:58:45.843Z,12.37
2017-09-22T00:59:25.541Z,12.41
2017-09-22T01:00:06.097Z,12.44
2017-09-22T01:00:46.828Z,12.4
2017-09-22T01:01:27.028Z,12.4
2017-09-22T01:02:07.551Z,12.4
2017-09-22T01:02:48.213Z,12.46
2017-09-22T01:03:28.576Z,12.36
2017-09-22T01:04:09.950Z,12.51
2017-09-22T01:04:50.520Z,12.38
2017-09-22T01:05:31.045Z,12.49
2017-09-22T01:06:11.588Z,12.4
2017-09-22T01:06:52.041Z,12.38
2017-09-22T01:07:32.541Z,12.37
2017-09-22T01:08:13.081Z,12.36
2017-09-22T01:08:53.514Z,12.4
2017-09-22T01:09:33.968Z,12.43
2017-09-22T01:10:14.807Z,12.41
2017-09-22T01:10:55.166Z,12.31
2017-09-22T01:11:35.619Z,12.4
2017-09-22T01:12:16.049Z,12.36
2017-09-22T01:12:56.485Z,12.36
2017-09-22T01:13:36.941Z,12.36
2017-09-22T01:14:17.372Z,12.36
2017-09-22T01:14:57.916Z,12.31
2017-09-22T01:15:38.684Z,12.33
2017-09-22T01:16:19.037Z,12.33
2017-09-22T01:16:59.974Z,12.33
2017-09-22T01:17:40.378Z,12.3
2017-09-22T01:18:20.791Z,12.3
2017-09-22T01:19:01.195Z,12.34
2017-09-22T01:19:41.633Z,12.25
2017-09-22T01:20:22.035Z,12.33
2017-09-22T01:21:03.204Z,12.29
2017-09-22T01:21:43.023Z,12.16
2017-09-22T01:22:24.374Z,12.22
2017-09-22T01:23:05.550Z,12.12
2017-09-22T01:23:45.410Z,12.13
2017-09-22T01:24:28.617Z,12.18
2017-09-22T01:25:10.077Z,12.18
2017-09-22T01:25:50.676Z,12.18
2017-09-22T01:26:31.323Z,12.15
2017-09-22T01:27:12.358Z,12.11
2017-09-22T01:27:52.347Z,12.12
2017-09-22T01:28:32.834Z,12.11
2017-09-22T01:29:13.382Z,12.15
2017-09-22T01:29:57.301Z,12.12
2017-09-22T01:30:36.879Z,12.08
2017-09-22T01:31:17.552Z,12.11
2017-09-22T01:31:58.648Z,12.11
2017-09-22T01:32:39.111Z,12.11
2017-09-22T01:33:20.986Z,12.03
2017-09-22T01:34:01.522Z,12.15
2017-09-22T01:34:42.035Z,12
2017-09-22T01:35:22.452Z,12.11
2017-09-22T01:36:02.987Z,12.18
2017-09-22T01:36:43.728Z,12.11
2017-09-22T01:37:23.896Z,12.13
2017-09-22T01:38:04.397Z,12.12
2017-09-22T01:38:44.805Z,12
2017-09-22T01:39:25.444Z,12.11
2017-09-22T01:40:05.794Z,12.13
2017-09-22T01:40:46.419Z,12.16
2017-09-22T01:41:26.936Z,12.11
2017-09-22T01:42:08.158Z,12.11
2017-09-22T01:42:50.685Z,12.11
2017-09-22T01:43:31.090Z,12.18
2017-09-22T01:44:11.458Z,12.16
2017-09-22T01:44:51.890Z,12.19
2017-09-22T01:45:32.346Z,12.25
2017-09-22T01:46:12.747Z,12.13
2017-09-22T01:46:53.234Z,12.16
2017-09-22T01:47:33.593Z,12.22
2017-09-22T01:48:14.085Z,12.25
2017-09-22T01:48:54.458Z,12.23
2017-09-22T01:49:34.939Z,12.23
2017-09-22T01:50:16.140Z,12.29
2017-09-22T01:50:58.261Z,12.31
2017-09-22T01:51:43.133Z,12.36
2017-09-22T01:52:23.580Z,12.37
2017-09-22T01:53:04.081Z,12.44
2017-09-22T01:53:44.785Z,12.38
2017-09-22T01:54:25.636Z,12.44
2017-09-22T01:55:05.568Z,12.51
2017-09-22T01:55:46.414Z,12.37
2017-09-22T01:56:27.580Z,12.36
2017-09-22T01:57:08.228Z,12.4
2017-09-22T01:57:48.418Z,12.36
2017-09-22T01:58:29.593Z,12.44
2017-09-22T01:59:10.171Z,12.4
2017-09-22T01:59:50.810Z,12.36
2017-09-22T02:00:31.109Z,12.31
2017-09-22T02:01:11.600Z,12.37
2017-09-22T02:01:52.510Z,12.34
2017-09-22T02:02:33.088Z,12.31
2017-09-22T02:03:13.652Z,12.31
2017-09-22T02:06:45.352Z,12.36
2017-09-22T02:10:09.316Z,12.41
2017-09-22T02:10:51.461Z,12.37
2017-09-22T02:11:31.127Z,12.29
2017-09-22T02:12:11.967Z,12.3
2017-09-22T02:12:52.184Z,12.37
2017-09-22T02:13:33.862Z,12.21
2017-09-22T02:14:14.466Z,12.25
2017-09-22T02:14:55.065Z,12.26
2017-09-22T02:15:35.554Z,12.25
2017-09-22T02:16:20.324Z,12.37
2017-09-22T02:24:28.284Z,12.43
2017-09-22T02:25:16.558Z,12.4
2017-09-22T02:45:46.992Z,12.62
2017-09-22T02:46:35.687Z,12.61
2017-09-22T02:47:24.562Z,12.56
2017-09-22T02:48:12.869Z,12.51
2017-09-22T02:49:02.049Z,12.55
2017-09-22T02:49:50.829Z,12.46
2017-09-22T02:50:39.518Z,12.48
2017-09-22T03:06:40.644Z,12.12
2017-09-22T03:08:34.829Z,12.01
2017-09-22T03:17:21.518Z,11.9
2017-09-22T03:19:23.438Z,11.93
2017-09-22T03:29:28.061Z,12.04
2017-09-22T03:30:10.525Z,12.04
2017-09-22T03:30:50.625Z,12.03
2017-09-22T03:31:31.156Z,12.12
2017-09-22T03:32:11.571Z,12.12
2017-09-22T03:32:52.063Z,12
2017-09-22T03:33:32.494Z,12.12
2017-09-22T03:34:13.021Z,12.07
2017-09-22T03:34:53.494Z,11.98
2017-09-22T03:35:33.881Z,12.01
2017-09-22T03:36:14.616Z,12.03
2017-09-22T03:36:55.296Z,12.11
2017-09-22T03:37:35.805Z,12.11
2017-09-22T03:38:17.763Z,12.08
2017-09-22T03:38:58.401Z,12.13
2017-09-22T03:39:38.671Z,12.04
2017-09-22T03:40:18.943Z,12.11
2017-09-22T03:40:59.521Z,12.08
2017-09-22T03:50:24.813Z,12.04
2017-09-22T03:51:05.763Z,11.97
2017-09-22T03:51:47.259Z,12.05
2017-09-22T03:52:27.730Z,11.98
2017-09-22T03:53:08.718Z,11.96
2017-09-22T03:53:48.790Z,12.05
2017-09-22T03:54:29.240Z,12
2017-09-22T03:55:09.732Z,11.96
2017-09-22T03:55:50.299Z,11.96
2017-09-22T03:56:30.848Z,12
2017-09-22T03:57:11.251Z,11.98
2017-09-22T03:57:51.725Z,12.05
2017-09-22T03:58:32.076Z,11.96
2017-09-22T03:59:12.498Z,12.11
2017-09-22T03:59:53.057Z,12.05
2017-09-22T04:00:33.613Z,12.08
2017-09-22T04:01:14.159Z,12.11
2017-09-22T04:01:54.725Z,12.05
2017-09-22T04:02:35.420Z,12.12
2017-09-22T04:03:16.715Z,12.11
2017-09-22T04:03:57.532Z,12.11
2017-09-22T04:04:38.206Z,12.11
2017-09-22T04:05:18.951Z,12.04
2017-09-22T04:05:59.360Z,11.9
2017-09-22T04:06:40.164Z,12
2017-09-22T04:07:20.721Z,11.96
2017-09-22T04:08:01.092Z,12
2017-09-22T04:08:42.235Z,12.03
2017-09-22T04:09:22.371Z,11.93
2017-09-22T04:10:02.960Z,11.96
2017-09-22T04:10:43.360Z,11.9
2017-09-22T04:11:25.155Z,11.94
2017-09-22T04:12:05.729Z,11.88
2017-09-22T04:12:46.943Z,11.82
2017-09-22T04:13:27.424Z,11.72
2017-09-22T04:14:08.478Z,11.75
2017-09-22T04:14:51.581Z,11.87
2017-09-22T04:15:33.390Z,11.88
2017-09-22T04:20:15.669Z,11.94
2017-09-22T04:21:03.498Z,11.88
2017-09-22T04:21:43.273Z,11.84
2017-09-22T04:22:23.935Z,11.96
2017-09-22T04:23:05.023Z,11.94
2017-09-22T04:23:47.402Z,11.98
2017-09-22T04:24:28.088Z,11.93
2017-09-22T04:25:08.881Z,12
2017-09-22T04:25:49.784Z,11.96
2017-09-22T04:26:30.668Z,11.98
2017-09-22T04:27:13.811Z,11.93
2017-09-22T04:27:54.366Z,11.98
2017-09-22T04:28:35.446Z,11.98
2017-09-22T04:29:15.948Z,11.96
2017-09-22T04:29:56.420Z,11.9
2017-09-22T04:30:37.383Z,11.88
2017-09-22T04:31:18.012Z,11.85
2017-09-22T04:31:59.200Z,11.9
2017-09-22T04:32:40.330Z,11.81
2017-09-22T04:33:20.937Z,11.98
2017-09-22T04:34:03.174Z,11.9
2017-09-22T04:34:43.422Z,11.88
2017-09-22T04:35:24.718Z,11.94
2017-09-22T04:36:05.280Z,11.88
2017-09-22T04:36:46.353Z,11.9
2017-09-22T04:37:28.874Z,11.82
2017-09-22T04:38:10.259Z,11.79
2017-09-22T04:38:51.245Z,11.88
2017-09-22T04:39:31.833Z,11.75
2017-09-22T04:40:12.586Z,11.84
2017-09-22T04:40:55.079Z,11.81
2017-09-22T04:41:36.033Z,11.88
2017-09-22T04:42:18.278Z,11.96
2017-09-22T04:43:00.696Z,11.9
2017-09-22T04:43:42.179Z,11.96
2017-09-22T04:44:22.712Z,11.93
2017-09-22T04:45:04.305Z,11.88
2017-09-22T04:45:45.799Z,11.82
2017-09-22T04:46:26.751Z,11.82
2017-09-22T04:53:36.327Z,11.63
2017-09-22T04:54:34.742Z,11.77
2017-09-22T04:55:16.536Z,11.77
2017-09-22T04:55:56.665Z,11.74
2017-09-22T04:56:37.657Z,11.79
2017-09-22T04:57:18.166Z,11.72
2017-09-22T04:57:58.672Z,11.75
2017-09-22T04:58:39.110Z,11.84
2017-09-22T04:59:19.643Z,11.81
2017-09-22T05:00:02.558Z,11.7
2017-09-22T05:00:43.516Z,11.93
2017-09-22T05:01:24.977Z,11.85
2017-09-22T05:02:05.350Z,11.88
2017-09-22T05:02:45.879Z,11.84
2017-09-22T05:03:26.651Z,11.84
2017-09-22T05:04:07.380Z,11.88
2017-09-22T05:04:48.137Z,11.72
2017-09-22T05:05:28.695Z,11.77
2017-09-22T05:06:09.419Z,11.75
2017-09-22T05:06:50.026Z,11.77
2017-09-22T05:07:30.689Z,11.72
2017-09-22T05:08:11.110Z,11.75
2017-09-22T05:08:51.855Z,11.67
2017-09-22T05:09:34.860Z,11.81
2017-09-22T05:10:15.295Z,11.69
2017-09-22T05:10:57.709Z,11.66
2017-09-22T05:11:37.533Z,11.67
2017-09-22T05:12:18.033Z,11.57
2017-09-22T05:13:00.078Z,11.64
2017-09-22T05:13:45.340Z,11.63
2017-09-22T05:14:26.719Z,11.62
2017-09-22T05:15:07.083Z,11.51
2017-09-22T05:15:47.673Z,11.54
2017-09-22T05:16:28.192Z,11.53
2017-09-22T05:17:09.412Z,11.51
2017-09-22T05:18:50.654Z,11.63
2017-09-22T05:19:39.169Z,11.6
2017-09-22T05:20:18.207Z,11.63
2017-09-22T05:20:58.980Z,11.56
2017-09-22T05:21:39.712Z,11.57
2017-09-22T05:22:20.229Z,11.51
2017-09-22T05:23:00.710Z,11.51
2017-09-22T05:23:41.096Z,11.57
2017-09-22T05:24:21.648Z,11.45
2017-09-22T05:25:02.309Z,11.48
2017-09-22T05:25:42.734Z,11.46
2017-09-22T05:26:23.300Z,11.62
2017-09-22T05:27:03.995Z,11.66
2017-09-22T05:27:44.369Z,11.57
2017-09-22T05:28:24.709Z,11.62
2017-09-22T05:29:07.374Z,11.69
2017-09-22T05:29:48.501Z,11.67
2017-09-22T05:30:28.342Z,11.63
2017-09-22T05:31:08.970Z,11.67
2017-09-22T05:31:49.860Z,11.7
2017-09-22T05:32:30.099Z,11.67
2017-09-22T05:33:10.664Z,11.7
2017-09-22T05:33:51.745Z,11.72
2017-09-22T05:34:32.978Z,11.82
2017-09-22T05:35:13.223Z,11.94
2017-09-22T05:35:54.532Z,11.87
2017-09-22T05:36:35.337Z,11.97
2017-09-22T05:37:15.920Z,11.94
2017-09-22T05:37:56.400Z,11.98
2017-09-22T05:38:37.738Z,11.94
2017-09-22T05:39:20.231Z,12
2017-09-22T05:40:00.977Z,11.94
2017-09-22T05:40:43.250Z,11.97
2017-09-22T05:41:23.854Z,11.98
2017-09-22T05:42:04.662Z,12.03
2017-09-22T05:42:46.609Z,11.97
2017-09-22T05:43:27.426Z,12.03
2017-09-22T05:44:07.674Z,12.04
2017-09-22T05:44:48.352Z,12.12
2017-09-22T05:45:29.222Z,12.15
2017-09-22T05:46:09.443Z,12.11
2017-09-22T05:46:49.937Z,12.26
2017-09-22T05:47:30.379Z,12.37
2017-09-22T05:48:10.801Z,12.46
2017-09-22T05:48:51.246Z,12.56
2017-09-22T05:49:31.756Z,12.7
2017-09-22T05:50:12.193Z,12.73
2017-09-22T05:50:52.725Z,12.8
2017-09-22T05:51:33.088Z,12.98
2017-09-22T05:52:14.180Z,13.04
2017-09-22T05:52:55.083Z,13.07
2017-09-22T05:53:35.808Z,13.09
2017-09-22T05:54:16.177Z,13.16
2017-09-22T05:54:57.179Z,13.32
2017-09-22T05:55:39.561Z,13.36
2017-09-22T05:56:20.332Z,13.5
2017-09-22T05:57:00.702Z,13.54
2017-09-22T05:57:41.614Z,13.63
2017-09-22T05:58:22.826Z,13.66
2017-09-22T05:59:03.307Z,13.65
2017-09-22T05:59:43.700Z,13.69
2017-09-22T06:00:24.919Z,13.75
2017-09-22T06:01:05.588Z,13.75
2017-09-22T06:01:47.060Z,13.76
2017-09-22T06:02:27.990Z,13.73
2017-09-22T06:03:08.686Z,13.69
2017-09-22T06:03:49.551Z,13.73
2017-09-22T06:04:30.246Z,13.73
2017-09-22T06:05:11.155Z,13.84
2017-09-22T06:05:51.922Z,13.81
2017-09-22T06:06:32.792Z,13.93
2017-09-22T06:07:13.486Z,13.86
2017-09-22T06:07:54.309Z,13.99
2017-09-22T06:08:35.428Z,14.02
2017-09-22T06:09:16.124Z,14.16
2017-09-22T06:09:57.121Z,14.13
2017-09-22T06:10:38.899Z,14.2
2017-09-22T06:11:19.333Z,14.23
2017-09-22T06:12:00.595Z,14.36
2017-09-22T06:12:42.061Z,14.39
2017-09-22T06:13:22.642Z,14.36
2017-09-22T06:14:03.017Z,14.3
2017-09-22T06:14:43.485Z,14.27
2017-09-22T06:15:24.023Z,14.39
2017-09-22T06:16:05.454Z,14.34
2017-09-22T06:16:45.992Z,14.17
2017-09-22T06:17:27.123Z,14.13
2017-09-22T06:18:07.080Z,14.11
2017-09-22T06:21:29.173Z,14.01
2017-09-22T06:22:15.967Z,13.94
2017-09-22T06:22:56.536Z,14.02
2017-09-22T06:23:37.045Z,14.08
2017-09-22T06:24:17.767Z,14.11
2017-09-22T06:25:00.537Z,14.23
2017-09-22T06:25:40.790Z,14.3
2017-09-22T06:26:21.803Z,14.29
2017-09-22T06:27:02.795Z,14.39
2017-09-22T06:27:43.366Z,14.29
2017-09-22T06:28:24.054Z,14.3
2017-09-22T06:29:04.708Z,14.36
2017-09-22T06:29:45.087Z,14.26
2017-09-22T06:30:25.474Z,14.16
2017-09-22T06:31:06.418Z,14.16
2017-09-22T06:31:46.779Z,14.11
2017-09-22T06:32:28.681Z,14.21
2017-09-22T06:33:09.733Z,14.36
2017-09-22T06:33:50.869Z,14.44
2017-09-22T06:34:32.550Z,14.63
2017-09-22T06:35:13.009Z,14.72
2017-09-22T06:35:53.459Z,14.9
2017-09-22T06:36:35.143Z,15.04
2017-09-22T06:37:18.200Z,15.25
2017-09-22T06:38:01.466Z,15.37
2017-09-22T06:38:42.064Z,15.66
2017-09-22T06:39:24.439Z,15.74
2017-09-22T06:40:07.888Z,15.86
2017-09-22T06:40:51.395Z,15.96
2017-09-22T06:41:32.534Z,16.11
2017-09-22T06:42:14.827Z,16.3
2017-09-22T06:42:55.774Z,16.23
2017-09-22T06:43:41.633Z,16.23
2017-09-22T06:44:23.574Z,16.29
2017-09-22T06:49:17.682Z,16.14
2017-09-22T06:50:37.359Z,16.18
2017-09-22T06:52:46.812Z,16.48
2017-09-22T06:54:01.443Z,16.6
2017-09-22T06:55:07.536Z,16.78
2017-09-22T06:56:46.018Z,16.9
2017-09-22T06:57:50.401Z,17.03
2017-09-22T06:58:49.859Z,17.09
2017-09-22T06:59:35.108Z,17.14
2017-09-22T07:00:16.207Z,17.18
2017-09-22T07:00:56.772Z,17.15
2017-09-22T07:01:36.942Z,17.24
2017-09-22T07:02:17.674Z,17.27
2017-09-22T07:02:58.134Z,17.38
2017-09-22T07:03:38.564Z,17.39
2017-09-22T07:04:19.187Z,17.54
2017-09-22T07:04:59.816Z,17.57
2017-09-22T07:05:40.168Z,17.6
2017-09-22T07:06:20.706Z,17.74
2017-09-22T07:07:01.207Z,17.79
2017-09-22T07:07:42.034Z,17.95
2017-09-22T07:08:22.353Z,18.01
2017-09-22T07:09:02.765Z,18.21
2017-09-22T07:09:43.490Z,18.19
2017-09-22T07:10:24.099Z,18.29
2017-09-22T07:11:21.148Z,18.36
2017-09-22T07:21:21.823Z,19.58
2017-09-22T07:26:14.110Z,19.97
2017-09-22T07:29:23.982Z,19.94
2017-09-22T07:30:25.458Z,19.85
2017-09-22T07:31:27.328Z,19.87
2017-09-22T07:32:24.150Z,19.86
2017-09-22T07:33:22.907Z,20.02
2017-09-22T07:34:23.362Z,20.08
2017-09-22T07:35:20.705Z,20.15
2017-09-22T07:36:36.275Z,20.22
2017-09-22T07:40:30.301Z,20.46
2017-09-22T07:41:28.510Z,20.42
2017-09-22T07:42:27.088Z,20.42
2017-09-22T07:43:29.701Z,20.33
2017-09-22T07:44:33.597Z,20.4
2017-09-22T07:45:31.520Z,20.4
2017-09-22T07:46:34.114Z,20.27
2017-09-22T07:50:10.790Z,20.44
2017-09-22T07:51:22.856Z,20.42
2017-09-22T07:52:22.237Z,20.44
2017-09-22T07:53:22.673Z,20.42
2017-09-22T07:54:24.815Z,20.4
2017-09-22T07:56:49.868Z,20.61
2017-09-22T07:58:08.302Z,20.88
2017-09-22T07:59:50.331Z,21.01
2017-09-22T08:00:39.789Z,21.12
2017-09-22T08:01:22.775Z,21.16
2017-09-22T08:02:05.338Z,21.19
2017-09-22T08:02:48.253Z,21.16
2017-09-22T08:07:53.238Z,21.09
2017-09-22T08:08:41.943Z,21.05
2017-09-22T08:09:31.465Z,21.03
2017-09-22T08:10:20.449Z,21.09
2017-09-22T08:11:09.191Z,21.12
2017-09-22T08:23:06.255Z,21.48
2017-09-22T08:24:05.891Z,21.61
2017-09-22T08:26:01.244Z,21.61
2017-09-22T08:26:40.991Z,21.63
2017-09-22T08:27:21.375Z,21.74
2017-09-22T08:28:03.886Z,21.81
2017-09-22T08:28:44.427Z,21.75
2017-09-22T08:29:25.185Z,21.81
2017-09-22T08:30:06.419Z,21.94
2017-09-22T08:30:46.841Z,21.98
2017-09-22T08:33:01.995Z,22.35
2017-09-22T08:34:00.954Z,22.38
2017-09-22T08:35:07.117Z,22.49
2017-09-22T08:36:13.896Z,22.67
2017-09-22T08:37:15.317Z,22.85
2017-09-22T08:38:18.689Z,22.75
2017-09-22T08:39:18.060Z,22.93
2017-09-22T08:40:22.910Z,23.01
2017-09-22T08:41:25.239Z,22.94
2017-09-22T08:42:33.099Z,22.89
2017-09-22T08:43:33.727Z,22.75
2017-09-22T08:44:39.684Z,22.64
2017-09-22T08:45:42.223Z,22.72
2017-09-22T08:46:46.444Z,22.91
2017-09-22T08:55:06.490Z,24.06
2017-09-22T08:56:26.722Z,24.29
2017-09-22T08:57:25.785Z,24.39
2017-09-22T08:58:21.996Z,24.36
2017-09-22T09:07:14.720Z,25.3
2017-09-22T09:08:03.463Z,25.38
2017-09-22T09:08:52.582Z,25.42
2017-09-22T09:09:40.794Z,25.49
2017-09-22T09:10:30.226Z,25.64
2017-09-22T09:11:19.757Z,25.67
2017-09-22T09:13:41.619Z,26.13
2017-09-22T09:14:37.388Z,26.36
2017-09-22T09:15:20.129Z,26.61
2017-09-22T09:16:18.026Z,26.76
2017-09-22T09:17:13.906Z,26.86
2017-09-22T09:18:54.655Z,27.33
2017-09-22T09:19:43.229Z,27.55
2017-09-22T09:20:32.516Z,27.55
2017-09-22T09:21:21.070Z,27.84
2017-09-22T09:22:09.848Z,27.95
2017-09-22T09:28:45.053Z,28.3
2017-09-22T09:29:41.551Z,28.48
2017-09-22T09:30:43.343Z,28.45
2017-09-22T09:31:44.349Z,28.35
2017-09-22T09:32:45.472Z,28.48
2017-09-22T09:33:43.390Z,28.64
2017-09-22T09:34:44.631Z,28.72
2017-09-22T09:35:55.277Z,28.72
2017-09-22T09:36:59.849Z,28.82
2017-09-22T09:37:57.527Z,28.73
2017-09-22T09:39:09.558Z,28.58
2017-09-22T09:40:23.007Z,28.58
2017-09-22T09:41:28.521Z,28.65
2017-09-22T09:42:17.083Z,28.73
2017-09-22T09:42:57.646Z,28.7
2017-09-22T09:43:38.069Z,28.74
2017-09-22T09:44:18.844Z,28.77
2017-09-22T09:44:59.652Z,28.74
2017-09-22T09:48:00.081Z,28.48
2017-09-22T09:48:58.773Z,28.4
2017-09-22T09:50:00.885Z,28.36
2017-09-22T09:50:58.737Z,28.38
2017-09-22T09:51:59.720Z,28.32
2017-09-22T09:53:01.901Z,28.45
2017-09-22T09:54:01.249Z,28.36
2017-09-22T09:57:58.835Z,28.5
2017-09-22T09:58:59.173Z,28.42
2017-09-22T10:00:05.085Z,28.42
2017-09-22T10:01:05.193Z,28.36
2017-09-22T10:02:07.030Z,28.3
2017-09-22T10:03:17.688Z,28.25
2017-09-22T10:04:16.310Z,28.36
2017-09-22T10:05:17.919Z,28.2
2017-09-22T10:06:58.796Z,28.02
2017-09-22T10:07:50.152Z,28.02
2017-09-22T10:08:39.745Z,28.01
2017-09-22T10:09:30.869Z,28.02
2017-09-22T10:10:20.115Z,28.23
2017-09-22T10:11:11.289Z,28.3
2017-09-22T10:11:51.058Z,28.32
2017-09-22T10:12:31.576Z,28.36
2017-09-22T10:13:15.361Z,28.36
2017-09-22T10:13:57.804Z,28.25
2017-09-22T10:14:38.359Z,28.3
2017-09-22T10:15:18.954Z,28.32
2017-09-22T10:16:00.380Z,28.17
2017-09-22T10:16:41.468Z,28.25
2017-09-22T10:17:21.489Z,28.24
2017-09-22T10:18:09.573Z,28.4
2017-09-22T10:18:53.882Z,28.38
2017-09-22T10:22:03.686Z,28.73
2017-09-22T10:26:32.121Z,29
2017-09-22T10:27:37.933Z,28.98
2017-09-22T10:28:50.795Z,28.97
2017-09-22T10:29:47.018Z,28.91
2017-09-22T10:31:06.577Z,28.72
2017-09-22T10:32:06.728Z,28.74
2017-09-22T10:34:40.088Z,28.65
2017-09-22T10:41:11.820Z,28.36
2017-09-22T10:42:01.079Z,28.4
2017-09-22T10:42:51.100Z,28.52
2017-09-22T10:43:40.661Z,28.46
2017-09-22T10:44:31.787Z,28.51
2017-09-22T10:46:59.660Z,28.69
2017-09-22T10:47:57.378Z,28.65
2017-09-22T10:48:54.453Z,28.85
2017-09-22T10:49:49.588Z,28.91
2017-09-22T10:50:52.741Z,29
2017-09-22T10:51:33.159Z,28.94
2017-09-22T10:52:13.626Z,28.95
2017-09-22T10:52:53.989Z,28.94
2017-09-22T10:53:41.386Z,29.1
2017-09-22T10:54:21.889Z,29.17
2017-09-22T10:55:02.475Z,29.29
2017-09-22T10:55:42.822Z,29.41
2017-09-22T10:56:23.352Z,29.48
2017-09-22T10:57:03.896Z,29.58
2017-09-22T10:57:44.448Z,29.54
2017-09-22T10:58:24.865Z,29.57
2017-09-22T10:59:05.382Z,29.7
2017-09-22T10:59:45.775Z,29.78
2017-09-22T11:00:26.253Z,29.94
2017-09-22T11:01:06.819Z,30.04
2017-09-22T11:01:47.521Z,30.1
2017-09-22T11:02:28.022Z,30.23
2017-09-22T11:03:08.656Z,30.21
2017-09-22T11:03:49.123Z,30.38
2017-09-22T11:04:29.569Z,30.3
2017-09-22T11:05:10.007Z,30.38
2017-09-22T11:05:50.447Z,30.3
2017-09-22T11:06:30.879Z,30.49
2017-09-22T11:07:11.629Z,30.44
2017-09-22T11:07:52.176Z,30.46
2017-09-22T11:08:33.004Z,30.4
2017-09-22T11:09:13.428Z,30.42
2017-09-22T11:09:53.937Z,30.45
2017-09-22T11:10:34.372Z,30.38
2017-09-22T11:11:15.182Z,30.42
2017-09-22T11:11:55.661Z,30.51
2017-09-22T11:12:36.119Z,30.54
2017-09-22T11:13:16.505Z,30.66
2017-09-22T11:13:57.305Z,30.64
2017-09-22T11:14:37.747Z,30.75
2017-09-22T11:15:18.227Z,30.85
2017-09-22T11:15:58.881Z,30.98
2017-09-22T11:16:39.465Z,31.1
2017-09-22T11:17:19.903Z,31.13
2017-09-22T11:18:00.716Z,30.96
2017-09-22T11:18:42.231Z,31.04
2017-09-22T11:19:23.328Z,31.03
2017-09-22T11:26:59.204Z,30.23
2017-09-22T11:28:24.395Z,30
2017-09-22T11:31:44.600Z,29.39
2017-09-22T11:32:46.311Z,29.54
2017-09-22T11:33:47.444Z,29.67
2017-09-22T11:34:45.406Z,29.94
2017-09-22T11:35:48.376Z,30.1
2017-09-22T11:42:25.231Z,30.22
2017-09-22T11:43:20.056Z,30.51
2017-09-22T11:44:33.396Z,30.53
2017-09-22T11:45:25.491Z,30.64
2017-09-22T11:46:05.853Z,30.68
2017-09-22T11:46:46.210Z,30.79
2017-09-22T11:47:26.771Z,30.85
2017-09-22T11:48:07.207Z,30.7
2017-09-22T11:48:47.698Z,30.72
2017-09-22T11:49:29.085Z,30.82
2017-09-22T11:50:09.738Z,30.81
2017-09-22T11:50:50.332Z,30.91
2017-09-22T11:51:31.212Z,30.9
2017-09-22T11:52:11.948Z,30.88
2017-09-22T11:52:52.541Z,31
2017-09-22T11:53:32.940Z,31.03
2017-09-22T11:54:13.841Z,31.18
2017-09-22T11:56:25.653Z,31.46
2017-09-22T11:59:12.703Z,31.45
2017-09-22T12:00:08.096Z,31.53
2017-09-22T12:01:06.752Z,31.53
2017-09-22T12:02:08.683Z,31.54
2017-09-22T12:04:27.999Z,31.16
2017-09-22T12:05:28.957Z,31.03
2017-09-22T12:06:10.249Z,30.94
2017-09-22T12:06:50.658Z,30.82
2017-09-22T12:07:31.116Z,30.64
2017-09-22T12:08:11.479Z,30.59
2017-09-22T12:08:51.967Z,30.56
2017-09-22T12:09:32.594Z,30.64
2017-09-22T12:10:12.988Z,30.61
2017-09-22T12:10:53.566Z,30.66
2017-09-22T12:11:34.035Z,30.75
2017-09-22T12:12:14.548Z,30.73
2017-09-22T12:13:03.083Z,30.82
2017-09-22T12:13:43.554Z,30.91
2017-09-22T12:14:24.152Z,31.03
2017-09-22T12:15:04.542Z,31.12
2017-09-22T12:15:44.987Z,31.16
2017-09-22T12:16:25.472Z,31.15
2017-09-22T12:17:06.017Z,31.23
2017-09-22T12:17:46.619Z,31.07
2017-09-22T12:18:27.113Z,31.05
2017-09-22T12:19:07.449Z,30.86
2017-09-22T12:19:47.955Z,30.88
2017-09-22T12:20:28.523Z,30.85
2017-09-22T12:21:09.046Z,30.9
2017-09-22T12:21:49.555Z,30.97
2017-09-22T12:22:30.193Z,30.93
2017-09-22T12:23:10.581Z,31.05
2017-09-22T12:23:51.087Z,31.12
2017-09-22T12:24:31.596Z,31.25
2017-09-22T12:25:11.988Z,31.13
2017-09-22T12:25:52.702Z,31.18
2017-09-22T12:26:34.093Z,31.2
2017-09-22T12:27:14.633Z,31.2
2017-09-22T12:27:55.149Z,31.3
2017-09-22T12:28:35.799Z,31.22
2017-09-22T12:29:16.520Z,31.2
2017-09-22T12:29:57.894Z,31.16
2017-09-22T12:30:38.426Z,31
2017-09-22T12:31:18.886Z,31.16
2017-09-22T12:31:59.552Z,31.23
2017-09-22T12:32:39.953Z,31.37
2017-09-22T12:33:20.442Z,31.41
2017-09-22T12:34:01.894Z,31.34
2017-09-22T12:34:41.429Z,31.22
2017-09-22T12:37:06.628Z,31.22
2017-09-22T12:38:10.047Z,31.13
2017-09-22T12:39:11.926Z,31.1
2017-09-22T12:40:21.707Z,31.1
2017-09-22T12:41:30.554Z,31.01
2017-09-22T12:42:32.076Z,31.13
2017-09-22T12:43:34.669Z,31.32
2017-09-22T12:44:35.953Z,31.3
2017-09-22T12:45:39.621Z,31.28
2017-09-22T12:46:37.001Z,31.31
2017-09-22T12:47:38.824Z,31.18
2017-09-22T12:51:57.007Z,30.78
2017-09-22T13:57:19.165Z,28.03
2017-09-22T13:58:17.650Z,28.05
2017-09-22T13:59:33.886Z,28.15
2017-09-22T14:00:35.451Z,28.2
2017-09-22T14:01:25.910Z,28.24
2017-09-22T14:02:06.286Z,28.27
2017-09-22T14:02:46.775Z,28.33
2017-09-22T14:03:27.205Z,28.42
2017-09-22T14:04:07.621Z,28.4
2017-09-22T14:04:48.258Z,28.3
2017-09-22T14:05:28.900Z,28.24
2017-09-22T14:06:09.275Z,28.3
2017-09-22T14:06:49.765Z,28.18
2017-09-22T14:07:30.324Z,28.21
2017-09-22T14:09:28.587Z,28.33
2017-09-22T14:10:27.273Z,28.3
2017-09-22T14:11:26.240Z,28.17
2017-09-22T14:12:24.709Z,28.15
2017-09-22T14:13:21.659Z,28.2
2017-09-22T14:14:18.055Z,28.4
2017-09-22T14:15:15.365Z,28.42
2017-09-22T14:16:15.059Z,28.51
2017-09-22T14:17:17.946Z,28.6
2017-09-22T14:18:25.462Z,28.64
2017-09-22T14:19:36.213Z,28.69
2017-09-22T14:20:41.618Z,28.7
2017-09-22T14:21:48.792Z,28.7
2017-09-22T14:22:52.024Z,28.8
